KSAC/SAC METAR and TAF weather

Enter ICAO airport designator
Station Type Date Time Source
KSAC METAR 2021/07/27 21:53 UTC NOAA

KSAC 272153Z 35012KT 10SM CLR 34/10 A2996 RMK AO2 SLP145 T03390100


Station Type Date Time Source
KSAC Decoded METAR 2021/07/27 21:53 UTC NOAA

SACRAMENTO EXECUTIVE AIRPORT , CA, United States (KSAC) 38-30N 121-30W 11M
Jul 27, 2021 - 05:53 PM EDT / 2021.07.27 2153 UTC
Wind: from the N (350 degrees) at 14 MPH (12 KT):0
Visibility: 10 mile(s):0
Sky conditions: clear
Temperature: 93.0 F (33.9 C)
Dew Point: 50.0 F (10.0 C)
Relative Humidity: 23%
Pressure (altimeter): 29.96 in. Hg (1014 hPa)
ob: KSAC 272153Z 35012KT 10SM CLR 34/10 A2996 RMK AO2 SLP145 T03390100
cycle: 22

Station Type Date Time Source
KSAC TAF 2021/07/27 18:27 UTC NOAA

TAF KSAC 271725Z 2718/2818 27005KT P6SM BKN250
FM272000 31006KT P6SM SKC
FM280300 23005KT P6SM SKC

Example: see airport list